sensor_id;sensor_type;location;lat;lon;timestamp;temperature;humidity
3874;DHT22;1952;50.872;6.692;2022-12-01T00:32:28;7.70;99.90
3874;DHT22;1952;50.872;6.692;2022-12-01T00:39:58;7.80;99.90
3874;DHT22;1952;50.872;6.692;2022-12-01T00:47:42;7.80;99.90
3874;DHT22;1952;50.872;6.692;2022-12-01T00:50:10;7.80;99.90
3874;DHT22;1952;50.872;6.692;2022-12-01T01:10:10;8.10;99.90
3874;DHT22;1952;50.872;6.692;2022-12-01T01:15:07;8.00;99.90
3874;DHT22;1952;50.872;6.692;2022-12-01T01:27:37;8.10;99.90
3874;DHT22;1952;50.872;6.692;2022-12-01T01:50:20;8.10;99.90
3874;DHT22;1952;50.872;6.692;2022-12-01T02:10:35;8.10;99.90
3874;DHT22;1952;50.872;6.692;2022-12-01T02:42:02;8.30;99.90
3874;DHT22;1952;50.872;6.692;2022-12-01T02:52:12;8.40;99.90
3874;DHT22;1952;50.872;6.692;2022-12-01T02:54:42;8.50;99.90
3874;DHT22;1952;50.872;6.692;2022-12-01T03:13:17;7.90;99.90
3874;DHT22;1952;50.872;6.692;2022-12-01T03:23:58;7.90;99.90
3874;DHT22;1952;50.872;6.692;2022-12-01T03:37:09;8.00;99.90
3874;DHT22;1952;50.872;6.692;2022-12-01T03:45:16;8.10;99.90
3874;DHT22;1952;50.872;6.692;2022-12-01T03:53:01;8.30;99.90
3874;DHT22;1952;50.872;6.692;2022-12-01T06:43:56;7.70;99.90
3874;DHT22;1952;50.872;6.692;2022-12-01T12:34:34;9.60;99.90
3874;DHT22;1952;50.872;6.692;2022-12-01T12:37:11;9.60;99.90
3874;DHT22;1952;50.872;6.692;2022-12-01T12:39:55;9.70;99.90
3874;DHT22;1952;50.872;6.692;2022-12-01T12:42:39;9.70;99.90
3874;DHT22;1952;50.872;6.692;2022-12-01T12:45:20;9.50;99.90
3874;DHT22;1952;50.872;6.692;2022-12-01T12:48:00;9.30;99.90
3874;DHT22;1952;50.872;6.692;2022-12-01T12:50:39;9.40;99.90
3874;DHT22;1952;50.872;6.692;2022-12-01T12:53:13;9.10;99.90
3874;DHT22;1952;50.872;6.692;2022-12-01T12:55:44;5.90;99.90
3874;DHT22;1952;50.872;6.692;2022-12-01T12:58:16;8.70;99.90
3874;DHT22;1952;50.872;6.692;2022-12-01T13:00:50;9.00;99.90
3874;DHT22;1952;50.872;6.692;2022-12-01T13:03:34;8.70;99.90
3874;DHT22;1952;50.872;6.692;2022-12-01T13:06:07;8.70;99.90
3874;DHT22;1952;50.872;6.692;2022-12-01T13:08:46;8.70;99.90
3874;DHT22;1952;50.872;6.692;2022-12-01T13:11:21;9.10;99.90
3874;DHT22;1952;50.872;6.692;2022-12-01T13:13:56;9.40;99.90
3874;DHT22;1952;50.872;6.692;2022-12-01T13:16:33;9.40;99.90
3874;DHT22;1952;50.872;6.692;2022-12-01T13:19:12;9.80;99.90
3874;DHT22;1952;50.872;6.692;2022-12-01T13:21:45;9.70;99.90
3874;DHT22;1952;50.872;6.692;2022-12-01T13:24:16;9.30;99.90
3874;DHT22;1952;50.872;6.692;2022-12-01T13:26:51;9.20;99.90
3874;DHT22;1952;50.872;6.692;2022-12-01T13:29:31;9.20;99.90
3874;DHT22;1952;50.872;6.692;2022-12-01T13:32:06;9.00;99.90
3874;DHT22;1952;50.872;6.692;2022-12-01T13:34:37;9.20;99.90
3874;DHT22;1952;50.872;6.692;2022-12-01T13:37:09;9.00;99.90
3874;DHT22;1952;50.872;6.692;2022-12-01T13:39:43;8.90;99.90
3874;DHT22;1952;50.872;6.692;2022-12-01T13:42:20;8.20;99.90
3874;DHT22;1952;50.872;6.692;2022-12-01T13:44:52;8.80;99.90
3874;DHT22;1952;50.872;6.692;2022-12-01T13:47:36;8.70;99.90
3874;DHT22;1952;50.872;6.692;2022-12-01T13:53:31;9.50;99.90
3874;DHT22;1952;50.872;6.692;2022-12-01T13:56:24;9.30;99.90
3874;DHT22;1952;50.872;6.692;2022-12-01T14:01:46;9.40;99.90
3874;DHT22;1952;50.872;6.692;2022-12-01T14:04:28;9.20;99.90
3874;DHT22;1952;50.872;6.692;2022-12-01T14:07:26;9.60;99.90
3874;DHT22;1952;50.872;6.692;2022-12-01T14:10:22;10.00;99.90
3874;DHT22;1952;50.872;6.692;2022-12-01T14:13:03;10.50;99.90
3874;DHT22;1952;50.872;6.692;2022-12-01T14:15:54;10.50;99.90
3874;DHT22;1952;50.872;6.692;2022-12-01T14:18:31;10.20;99.90
3874;DHT22;1952;50.872;6.692;2022-12-01T14:21:03;10.60;99.90
3874;DHT22;1952;50.872;6.692;2022-12-01T14:23:34;10.30;99.90
3874;DHT22;1952;50.872;6.692;2022-12-01T14:26:15;10.10;99.90
3874;DHT22;1952;50.872;6.692;2022-12-01T14:29:22;10.20;99.90
3874;DHT22;1952;50.872;6.692;2022-12-01T14:32:18;10.50;99.90
3874;DHT22;1952;50.872;6.692;2022-12-01T14:34:55;9.70;99.90
3874;DHT22;1952;50.872;6.692;2022-12-01T14:37:31;9.70;99.90
3874;DHT22;1952;50.872;6.692;2022-12-01T14:40:06;9.80;99.90
3874;DHT22;1952;50.872;6.692;2022-12-01T14:42:39;10.10;99.90
3874;DHT22;1952;50.872;6.692;2022-12-01T14:45:28;9.80;99.90
3874;DHT22;1952;50.872;6.692;2022-12-01T14:48:00;9.30;99.90
3874;DHT22;1952;50.872;6.692;2022-12-01T14:50:35;9.30;99.90
3874;DHT22;1952;50.872;6.692;2022-12-01T14:53:18;9.00;99.90
3874;DHT22;1952;50.872;6.692;2022-12-01T14:55:51;8.60;99.90
3874;DHT22;1952;50.872;6.692;2022-12-01T14:58:24;9.10;99.90
3874;DHT22;1952;50.872;6.692;2022-12-01T15:01:00;9.00;99.90
3874;DHT22;1952;50.872;6.692;2022-12-01T15:03:34;8.80;99.90
3874;DHT22;1952;50.872;6.692;2022-12-01T15:08:33;9.30;99.90
3874;DHT22;1952;50.872;6.692;2022-12-01T15:11:19;9.10;99.90
3874;DHT22;1952;50.872;6.692;2022-12-01T15:13:51;9.30;99.90
3874;DHT22;1952;50.872;6.692;2022-12-01T15:16:22;9.20;99.90
3874;DHT22;1952;50.872;6.692;2022-12-01T15:18:51;8.90;99.90
3874;DHT22;1952;50.872;6.692;2022-12-01T15:21:22;8.90;99.90
3874;DHT22;1952;50.872;6.692;2022-12-01T15:23:56;8.80;99.90
3874;DHT22;1952;50.872;6.692;2022-12-01T15:26:31;8.70;99.90
3874;DHT22;1952;50.872;6.692;2022-12-01T15:29:15;8.60;99.90
3874;DHT22;1952;50.872;6.692;2022-12-01T15:31:47;8.40;99.90
3874;DHT22;1952;50.872;6.692;2022-12-01T15:34:21;8.30;99.90
3874;DHT22;1952;50.872;6.692;2022-12-01T15:36:50;8.40;99.90
3874;DHT22;1952;50.872;6.692;2022-12-01T15:39:22;7.90;99.90
3874;DHT22;1952;50.872;6.692;2022-12-01T15:44:30;9.00;99.90
3874;DHT22;1952;50.872;6.692;2022-12-01T15:47:29;9.10;99.90
3874;DHT22;1952;50.872;6.692;2022-12-01T15:54:57;9.20;99.90
3874;DHT22;1952;50.872;6.692;2022-12-01T16:00:03;9.10;99.90
3874;DHT22;1952;50.872;6.692;2022-12-01T16:02:32;8.80;99.90
3874;DHT22;1952;50.872;6.692;2022-12-01T16:05:02;8.60;99.90
3874;DHT22;1952;50.872;6.692;2022-12-01T16:07:33;8.50;99.90
3874;DHT22;1952;50.872;6.692;2022-12-01T16:10:27;8.10;99.90
3874;DHT22;1952;50.872;6.692;2022-12-01T16:13:33;7.80;99.90
3874;DHT22;1952;50.872;6.692;2022-12-01T16:16:22;8.30;99.90
3874;DHT22;1952;50.872;6.692;2022-12-01T16:18:59;8.70;99.90
3874;DHT22;1952;50.872;6.692;2022-12-01T16:23:58;9.50;99.90
3874;DHT22;1952;50.872;6.692;2022-12-01T16:26:27;9.20;99.90
3874;DHT22;1952;50.872;6.692;2022-12-01T16:28:56;8.80;99.90
3874;DHT22;1952;50.872;6.692;2022-12-01T16:31:31;8.60;99.90
3874;DHT22;1952;50.872;6.692;2022-12-01T16:46:48;10.00;99.90
3874;DHT22;1952;50.872;6.692;2022-12-01T17:01:59;10.20;99.90
3874;DHT22;1952;50.872;6.692;2022-12-01T17:19:28;9.60;99.90
3874;DHT22;1952;50.872;6.692;2022-12-01T17:34:41;8.20;99.90
3874;DHT22;1952;50.872;6.692;2022-12-01T17:39:42;8.20;99.90
3874;DHT22;1952;50.872;6.692;2022-12-01T17:42:12;8.00;99.90
3874;DHT22;1952;50.872;6.692;2022-12-01T17:49:49;7.70;99.90
3874;DHT22;1952;50.872;6.692;2022-12-01T18:36:04;7.40;99.90
3874;DHT22;1952;50.872;6.692;2022-12-01T18:46:05;7.70;99.90
3874;DHT22;1952;50.872;6.692;2022-12-01T18:48:42;7.80;99.90
3874;DHT22;1952;50.872;6.692;2022-12-01T18:51:14;7.50;99.90
3874;DHT22;1952;50.872;6.692;2022-12-01T18:53:47;7.60;99.90
3874;DHT22;1952;50.872;6.692;2022-12-01T18:56:25;7.60;99.90
3874;DHT22;1952;50.872;6.692;2022-12-01T18:58:59;7.60;99.90
3874;DHT22;1952;50.872;6.692;2022-12-01T19:01:30;7.50;99.90
3874;DHT22;1952;50.872;6.692;2022-12-01T19:03:59;7.50;99.90
3874;DHT22;1952;50.872;6.692;2022-12-01T19:06:31;7.80;99.90
3874;DHT22;1952;50.872;6.692;2022-12-01T19:24:32;8.10;99.90
3874;DHT22;1952;50.872;6.692;2022-12-01T22:01:26;9.40;99.90
3874;DHT22;1952;50.872;6.692;2022-12-01T22:32:37;8.70;99.90
3874;DHT22;1952;50.872;6.692;2022-12-01T23:30:40;6.80;99.90
3874;DHT22;1952;50.872;6.692;2022-12-01T23:40:52;6.50;99.90
